Time;durP1;ratioP1;P1;durP2;ratioP2;P2;SDS_P1;SDS_P2;PMS_P1;PMS_P2;Temp;Humidity;BMP_temperature;BMP_pressure;BME280_temperature;BME280_humidity;BME280_pressure;Samples;Min_cycle;Max_cycle;Signal;HPM_P1;HPM_P2
2022/10/03 00:00:19;;;;;;;1.77;0.80;;;;;;;16.10;75.74;98098.78;4425088;32;20098;-83
2022/10/03 00:03:04;;;;;;;1.30;0.75;;;;;;;16.10;76.54;98101.38;4410837;32;20109;-83
2022/10/03 00:05:52;;;;;;;0.85;0.80;;;;;;;16.24;75.99;98097.88;4424905;32;20107;-83
2022/10/03 00:08:48;;;;;;;1.73;0.73;;;;;;;15.34;79.57;98109.56;4411284;32;20436;-83
2022/10/03 00:11:31;;;;;;;0.75;0.52;;;;;;;15.32;80.41;98098.44;4411509;32;20110;-83
2022/10/03 00:14:27;;;;;;;2.60;0.80;;;;;;;16.63;74.35;98101.41;4424727;32;20090;-83
2022/10/03 00:17:40;;;;;;;1.50;0.90;;;;;;;16.03;76.54;98094.03;4410827;32;20108;-83
2022/10/03 00:20:30;;;;;;;1.52;0.77;;;;;;;16.69;73.20;98099.28;4424996;32;20104;-83
2022/10/03 00:23:03;;;;;;;2.12;0.85;;;;;;;16.17;74.98;98100.06;4411397;32;20110;-83
2022/10/03 00:25:57;;;;;;;0.95;0.80;;;;;;;15.88;76.54;98111.47;4424367;32;20102;-83
2022/10/03 00:28:47;;;;;;;1.92;1.10;;;;;;;15.58;78.30;98119.41;4424705;32;20077;-83
2022/10/03 00:31:16;;;;;;;3.03;0.68;;;;;;;15.79;77.65;98114.66;4413906;32;20081;-83
2022/10/03 00:34:03;;;;;;;1.45;0.60;;;;;;;15.69;78.42;98111.78;4410523;32;20102;-83
2022/10/03 00:37:12;;;;;;;1.10;0.70;;;;;;;15.90;78.02;98112.22;4425604;32;20509;-82
2022/10/03 00:39:57;;;;;;;2.12;0.95;;;;;;;15.18;81.74;98110.59;4396036;32;20440;-83
2022/10/03 00:42:43;;;;;;;1.37;0.80;;;;;;;15.37;80.15;98115.50;4426487;32;20424;-83
2022/10/03 00:45:48;;;;;;;2.00;0.80;;;;;;;15.40;80.50;98116.16;4412567;32;20955;-83
2022/10/03 00:48:36;;;;;;;1.20;0.77;;;;;;;15.26;81.07;98122.19;4412797;32;20152;-83
2022/10/03 00:51:16;;;;;;;1.25;0.85;;;;;;;14.77;83.66;98137.25;4412747;32;20155;-83
2022/10/03 00:54:05;;;;;;;1.00;0.80;;;;;;;15.41;80.98;98138.63;4425946;32;20104;-83
2022/10/03 00:56:55;;;;;;;0.88;0.80;;;;;;;15.31;81.03;98127.09;4426311;32;20427;-83
2022/10/03 00:59:47;;;;;;;2.75;1.10;;;;;;;15.43;80.94;98134.19;4426109;32;20102;-83
2022/10/03 01:02:40;;;;;;;4.70;1.30;;;;;;;15.08;82.19;98125.87;4426392;32;20081;-83
2022/10/03 01:05:41;;;;;;;1.58;0.93;;;;;;;15.54;80.10;98134.34;4412524;32;20085;-83
2022/10/03 01:08:38;;;;;;;2.15;1.02;;;;;;;15.49;80.28;98132.97;4426049;32;20451;-83
2022/10/03 01:11:11;;;;;;;2.20;1.00;;;;;;;15.41;80.21;98122.19;4426349;32;20101;-83
2022/10/03 01:13:57;;;;;;;1.77;0.80;;;;;;;15.74;78.66;98122.75;4411957;32;20089;-83
2022/10/03 01:16:36;;;;;;;3.28;1.00;;;;;;;15.57;79.33;98118.56;4426342;32;20128;-83
2022/10/03 01:19:21;;;;;;;0.90;0.85;;;;;;;15.02;81.76;98119.31;4412925;32;20150;-83
2022/10/03 01:22:09;;;;;;;2.40;1.00;;;;;;;15.03;81.80;98131.38;4425924;32;20093;-83
2022/10/03 01:24:58;;;;;;;4.30;1.10;;;;;;;15.36;79.36;98119.88;4426037;32;20097;-83
2022/10/03 01:30:21;;;;;;;3.90;1.30;;;;;;;15.30;79.69;98118.47;4412345;32;20112;-83
2022/10/03 01:30:36;;;;;;;1.90;1.12;;;;;;;14.96;81.58;98116.22;4426220;32;20524;-83
2022/10/03 01:33:36;;;;;;;2.85;1.23;;;;;;;14.71;82.93;98117.69;4412268;32;20105;-83
2022/10/03 01:36:13;;;;;;;2.20;1.20;;;;;;;14.70;82.83;98120.38;4412100;32;20116;-83
2022/10/03 01:38:52;;;;;;;3.05;1.30;;;;;;;15.20;80.35;98122.56;4426128;32;20527;-83
2022/10/03 01:41:24;;;;;;;2.15;1.20;;;;;;;14.79;82.79;98116.41;4425789;32;20722;-83
2022/10/03 01:43:59;;;;;;;4.60;1.50;;;;;;;15.00;81.75;98128.97;4412273;32;20128;-83
2022/10/03 01:46:38;;;;;;;3.80;1.27;;;;;;;14.95;80.92;98132.75;4412150;32;20089;-83
2022/10/03 01:49:29;;;;;;;3.10;1.30;;;;;;;15.66;78.15;98130.19;4411507;32;20491;-83
2022/10/03 01:52:09;;;;;;;2.17;1.33;;;;;;;15.47;79.01;98134.81;4426084;32;20460;-83
2022/10/03 01:54:43;;;;;;;3.25;1.37;;;;;;;15.26;79.19;98129.16;4411969;32;20481;-83
2022/10/03 01:57:24;;;;;;;2.53;1.35;;;;;;;14.93;81.20;98137.22;4425540;32;20167;-83
2022/10/03 01:59:57;;;;;;;2.25;0.98;;;;;;;15.13;80.48;98138.63;4412211;32;20415;-83
2022/10/03 02:02:45;;;;;;;2.05;1.12;;;;;;;14.89;80.84;98138.31;4425661;32;20102;-83
2022/10/03 02:05:55;;;;;;;3.55;1.10;;;;;;;14.26;84.20;98138.47;4424891;32;20101;-83
2022/10/03 02:09:02;;;;;;;2.95;1.25;;;;;;;14.34;83.79;98137.09;4425864;32;20090;-83
2022/10/03 02:11:54;;;;;;;3.40;1.25;;;;;;;14.70;82.42;98129.00;4412028;32;20078;-83
2022/10/03 02:14:25;;;;;;;2.28;1.20;;;;;;;14.86;81.28;98141.91;4411841;32;20116;-83
2022/10/03 02:17:10;;;;;;;4.22;1.20;;;;;;;14.83;81.99;98144.69;4425395;32;20116;-83
2022/10/03 02:20:00;;;;;;;2.37;1.20;;;;;;;13.92;85.14;98142.06;4425845;32;20104;-83
2022/10/03 02:22:31;;;;;;;5.85;1.40;;;;;;;14.97;81.11;98143.88;4412171;32;20089;-82
2022/10/03 02:25:01;;;;;;;3.40;1.35;;;;;;;14.76;81.06;98151.16;4425406;32;20116;-82
2022/10/03 02:27:53;;;;;;;2.58;1.20;;;;;;;13.50;87.99;98153.81;4425917;32;20171;-83
2022/10/03 02:30:36;;;;;;;4.80;1.12;;;;;;;13.57;87.67;98152.59;4425273;32;20090;-83
2022/10/03 02:33:14;;;;;;;2.72;1.25;;;;;;;13.83;86.49;98141.66;4411791;32;20077;-83
2022/10/03 02:36:02;;;;;;;2.53;1.12;;;;;;;14.02;85.66;98148.41;4425704;32;20105;-83
2022/10/03 02:38:43;;;;;;;3.58;1.20;;;;;;;14.07;84.64;98151.63;4425304;32;20097;-83
2022/10/03 02:41:15;;;;;;;2.00;1.17;;;;;;;13.98;84.87;98147.75;4411993;32;20354;-83
2022/10/03 02:44:07;;;;;;;2.30;1.15;;;;;;;14.69;81.72;98142.91;4425541;32;20085;-83
2022/10/03 02:47:02;;;;;;;3.35;1.12;;;;;;;14.47;82.43;98147.66;4425604;32;20144;-83
2022/10/03 02:50:03;;;;;;;1.80;1.20;;;;;;;14.15;83.48;98154.63;4425588;32;20598;-83
2022/10/03 02:52:40;;;;;;;3.70;1.40;;;;;;;14.64;81.44;98157.91;4425353;32;20081;-83
2022/10/03 02:55:21;;;;;;;3.17;1.35;;;;;;;14.19;82.78;98158.72;4411708;32;20086;-83
2022/10/03 02:57:47;;;;;;;3.22;1.30;;;;;;;14.32;82.48;98146.72;4411683;32;20109;-83
2022/10/03 03:00:19;;;;;;;;;;;;;;;14.62;80.77;98153.72;4425287;32;20526;-83
2022/10/03 03:02:53;;;;;;;5.10;1.48;;;;;;;14.13;82.76;98149.50;4412125;32;20015;-83
2022/10/03 03:05:26;;;;;;;5.12;1.23;;;;;;;14.65;80.32;98146.59;4425141;32;20085;-83
2022/10/03 03:08:32;;;;;;;6.95;1.50;;;;;;;14.75;78.93;98146.91;4425436;32;20350;-83
2022/10/03 03:11:06;;;;;;;5.82;1.35;;;;;;;14.84;79.16;98155.91;4411888;32;20117;-83
2022/10/03 03:13:45;;;;;;;5.10;1.33;;;;;;;14.48;80.83;98162.31;4411553;32;20369;-83
2022/10/03 03:16:51;;;;;;;5.30;1.40;;;;;;;14.03;82.87;98166.50;4411542;32;20086;-83
2022/10/03 03:19:36;;;;;;;6.47;1.70;;;;;;;13.89;82.78;98162.06;4362379;32;20126;-83
2022/10/03 03:22:11;;;;;;;4.35;1.45;;;;;;;14.61;79.70;98165.03;4422013;32;20097;-83
2022/10/03 03:25:00;;;;;;;4.93;1.37;;;;;;;14.94;77.93;98164.84;4411569;32;20085;-83
2022/10/03 03:27:48;;;;;;;6.90;1.50;;;;;;;15.43;75.39;98170.59;4411138;32;20143;-83
2022/10/03 03:30:18;;;;;;;2.67;1.45;;;;;;;15.29;75.56;98186.16;4425374;32;20114;-83
2022/10/03 03:33:06;;;;;;;4.32;1.45;;;;;;;15.21;75.77;98191.00;4411379;32;20109;-83
2022/10/03 03:35:52;;;;;;;5.05;1.60;;;;;;;15.50;75.12;98192.66;4424873;32;20448;-83
2022/10/03 03:38:34;;;;;;;4.87;1.52;;;;;;;15.04;76.65;98197.16;4425307;32;20433;-83
2022/10/03 03:41:13;;;;;;;4.07;1.50;;;;;;;15.15;75.93;98197.38;4411252;32;20102;-83
2022/10/03 03:44:04;;;;;;;3.67;1.60;;;;;;;14.69;78.77;98202.66;4425344;32;20098;-83
2022/10/03 03:46:58;;;;;;;4.18;1.70;;;;;;;15.25;76.47;98205.47;4425044;32;20135;-83
2022/10/03 03:49:46;;;;;;;5.53;1.60;;;;;;;14.72;78.60;98197.25;4424817;32;20376;-83
2022/10/03 03:52:41;;;;;;;3.80;1.70;;;;;;;14.90;78.42;98200.56;4425275;32;20098;-83
2022/10/03 03:55:29;;;;;;;5.43;1.65;;;;;;;14.43;80.14;98198.03;4424503;32;20101;-83
2022/10/03 03:58:18;;;;;;;6.20;1.70;;;;;;;14.59;79.28;98204.09;4425115;32;20085;-83
2022/10/03 04:00:51;;;;;;;2.97;1.50;;;;;;;14.63;78.74;98215.13;4425083;32;20127;-83
2022/10/03 04:03:38;;;;;;;3.47;1.60;;;;;;;15.41;75.32;98210.59;4424839;32;20453;-82
2022/10/03 04:06:16;;;;;;;3.15;1.58;;;;;;;14.47;79.99;98228.16;4424853;32;20160;-82
2022/10/03 04:09:15;;;;;;;5.47;1.70;;;;;;;13.94;81.80;98224.09;4410937;32;20143;-83
2022/10/03 04:12:13;;;;;;;6.60;1.60;;;;;;;13.92;81.65;98231.09;4424179;32;20360;-83
2022/10/03 04:15:07;;;;;;;7.05;2.00;;;;;;;14.23;80.74;98240.66;4411201;32;20110;-83
2022/10/03 04:20:57;;;;;;;2.85;1.60;;;;;;;15.19;76.66;98261.22;4424916;32;20104;-83
2022/10/03 04:23:35;;;;;;;3.90;1.55;;;;;;;15.48;74.61;98259.53;4410792;32;20163;-84
2022/10/03 04:26:11;;;;;;;4.35;1.58;;;;;;;14.86;77.22;98264.00;4410829;32;20105;-83
2022/10/03 04:28:49;;;;;;;4.78;1.52;;;;;;;14.89;78.19;98263.84;4424828;32;20474;-83
2022/10/03 04:31:43;;;;;;;3.40;1.58;;;;;;;14.16;80.88;98258.34;4410687;32;20104;-83
2022/10/03 04:34:45;;;;;;;5.07;1.65;;;;;;;14.67;79.27;98261.63;4424328;32;20073;-83
2022/10/03 04:37:31;;;;;;;4.05;1.60;;;;;;;14.82;78.52;98264.28;4424267;32;20152;-83
2022/10/03 04:40:23;;;;;;;5.40;1.65;;;;;;;15.16;76.46;98265.78;4424916;32;20102;-83
2022/10/03 04:42:59;;;;;;;5.85;1.80;;;;;;;15.04;77.73;98265.56;4410872;32;20088;-83
2022/10/03 04:46:24;;;;;;;5.30;1.67;;;;;;;15.17;76.76;98259.66;4410476;32;20082;-83
2022/10/03 04:49:31;;;;;;;5.72;1.58;;;;;;;14.62;79.16;98268.81;4389980;32;20098;-83
2022/10/03 04:52:22;;;;;;;7.80;1.80;;;;;;;15.28;75.84;98268.50;4424145;32;20500;-84
2022/10/03 04:55:05;;;;;;;3.97;1.50;;;;;;;15.91;72.82;98262.19;4424408;32;20104;-84
2022/10/03 04:57:51;;;;;;;4.15;1.80;;;;;;;15.51;74.04;98258.50;4410217;32;20082;-83
2022/10/03 05:00:22;;;;;;;5.12;1.90;;;;;;;15.02;76.57;98271.78;4410634;32;20124;-83
2022/10/03 05:02:50;;;;;;;7.53;2.50;;;;;;;15.85;73.25;98268.63;4410709;32;20159;-83
2022/10/03 05:05:31;;;;;;;5.50;1.90;;;;;;;14.19;78.60;98260.75;4410007;32;20151;-83
2022/10/03 05:08:31;;;;;;;4.68;1.87;;;;;;;14.79;77.72;98274.84;4410536;32;20107;-83
2022/10/03 05:11:09;;;;;;;4.97;1.83;;;;;;;15.00;77.01;98278.84;4424117;32;20148;-83
2022/10/03 05:13:56;;;;;;;4.97;1.83;;;;;;;14.66;78.33;98279.88;4423927;32;20365;-83
2022/10/03 05:16:43;;;;;;;3.90;1.58;;;;;;;15.85;72.54;98280.81;4410557;32;20528;-83
2022/10/03 05:19:22;;;;;;;6.43;2.03;;;;;;;15.22;74.29;98275.84;4409989;32;20108;-83
2022/10/03 05:22:03;;;;;;;3.65;1.40;;;;;;;15.56;72.62;98283.34;4410769;32;20109;-83
2022/10/03 05:24:43;;;;;;;5.60;1.58;;;;;;;16.00;71.27;98276.41;4412255;32;20114;-83
2022/10/03 05:27:33;;;;;;;5.78;1.70;;;;;;;15.27;73.84;98279.81;4412317;32;20081;-83
2022/10/03 05:30:14;;;;;;;2.72;1.87;;;;;;;15.16;74.35;98281.38;4412523;32;20085;-83
2022/10/03 05:32:55;;;;;;;5.22;1.80;;;;;;;15.18;74.82;98282.97;4411825;32;20149;-84
2022/10/03 05:35:53;;;;;;;4.72;1.75;;;;;;;15.36;73.99;98277.63;4412338;32;20114;-84
2022/10/03 05:38:48;;;;;;;4.68;1.83;;;;;;;13.95;80.14;98289.78;4426114;32;20108;-84
2022/10/03 05:41:15;;;;;;;6.70;2.20;;;;;;;14.72;76.91;98285.56;4412321;32;20143;-84
2022/10/03 05:44:01;;;;;;;;;;;;;;;14.82;76.94;98279.88;4426321;32;20436;-83
2022/10/03 05:46:57;;;;;;;7.68;1.80;;;;;;;15.32;74.50;98296.00;4412296;32;20003;-84
2022/10/03 05:49:49;;;;;;;4.25;1.83;;;;;;;14.70;77.66;98295.22;4412289;32;20108;-83
2022/10/03 05:52:40;;;;;;;6.87;1.85;;;;;;;15.60;72.74;98302.22;4426040;32;20086;-83
2022/10/03 05:55:27;;;;;;;6.15;1.73;;;;;;;15.75;73.64;98303.94;4425460;32;20093;-83
2022/10/03 05:58:27;;;;;;;6.70;2.08;;;;;;;15.96;72.11;98298.38;4428998;32;20151;-84
2022/10/03 06:01:05;;;;;;;7.60;1.77;;;;;;;15.93;71.37;98316.75;4426968;32;20120;-83
2022/10/03 06:03:36;;;;;;;4.95;1.83;;;;;;;15.93;71.66;98314.13;4429853;32;20101;-84
2022/10/03 06:06:50;;;;;;;6.97;2.08;;;;;;;16.08;71.66;98314.06;4442436;32;20186;-84
2022/10/03 06:10:14;;;;;;;6.45;1.75;;;;;;;16.82;68.33;98312.12;4426089;32;20113;-83
2022/10/03 06:13:03;;;;;;;3.83;1.55;;;;;;;17.10;66.87;98322.44;4378261;32;20114;-85
2022/10/03 06:15:41;;;;;;;5.93;1.70;;;;;;;17.93;63.36;98313.41;4378549;32;20091;-85
2022/10/03 06:18:08;;;;;;;5.57;1.60;;;;;;;17.67;64.38;98318.72;4430261;32;20154;-83
2022/10/03 06:20:54;;;;;;;5.10;1.75;;;;;;;17.00;65.54;98310.91;4440097;32;20106;-81
2022/10/03 06:23:37;;;;;;;6.90;1.92;;;;;;;17.15;66.12;98327.38;4439682;32;20113;-82
2022/10/03 06:26:41;;;;;;;5.25;1.70;;;;;;;18.10;61.68;98321.88;4426896;32;20080;-82
2022/10/03 06:29:27;;;;;;;3.50;1.60;;;;;;;18.36;61.18;98315.66;4441022;32;20093;-81
2022/10/03 06:32:44;;;;;;;5.43;1.60;;;;;;;17.77;62.92;98328.44;4440917;32;20097;-81
2022/10/03 06:35:39;;;;;;;5.05;1.48;;;;;;;18.31;60.30;98330.00;4379209;32;20086;-81
2022/10/03 06:38:12;;;;;;;5.00;1.90;;;;;;;18.21;61.03;98330.63;4424384;32;20484;-81
2022/10/03 06:41:02;;;;;;;5.15;1.70;;;;;;;18.42;60.82;98338.75;4425565;32;20159;-81
2022/10/03 06:44:02;;;;;;;5.95;1.92;;;;;;;17.98;62.67;98339.22;4423953;32;20145;-82
2022/10/03 06:46:39;;;;;;;4.80;1.70;;;;;;;16.97;66.75;98345.00;4425400;32;20116;-79
2022/10/03 06:49:11;;;;;;;4.95;1.80;;;;;;;17.08;65.60;98324.31;4423825;32;20581;-78
2022/10/03 06:51:37;;;;;;;5.10;1.73;;;;;;;16.93;66.59;98327.91;4423711;32;20108;-79
2022/10/03 06:54:10;;;;;;;4.32;1.70;;;;;;;17.38;64.68;98331.91;4424816;32;20102;-79
2022/10/03 06:57:08;;;;;;;6.40;1.80;;;;;;;17.66;62.23;98327.47;4424429;32;20086;-79
2022/10/03 06:59:35;;;;;;;5.32;1.50;;;;;;;16.77;66.03;98333.25;4424943;32;20093;-79
2022/10/03 07:02:33;;;;;;;7.20;2.00;;;;;;;16.37;67.21;98316.63;4423554;32;20081;-80
2022/10/03 07:05:15;;;;;;;;;;;;;;;16.86;65.50;98332.66;4411489;32;20120;-79
2022/10/03 07:08:08;;;;;;;4.85;1.73;;;;;;;16.19;68.13;98332.47;4424834;32;19977;-79
2022/10/03 07:10:49;;;;;;;8.90;1.70;;;;;;;16.48;67.33;98325.47;4424653;32;20078;-80
2022/10/03 07:13:38;;;;;;;3.67;1.67;;;;;;;17.22;63.05;98337.28;4422680;32;20094;-79
2022/10/03 07:16:17;;;;;;;4.80;1.70;;;;;;;16.55;66.12;98330.28;4424611;32;20173;-79
2022/10/03 07:19:05;;;;;;;4.87;2.15;;;;;;;15.67;69.75;98339.13;4424428;32;20093;-80
2022/10/03 07:21:57;;;;;;;5.87;1.80;;;;;;;15.71;69.19;98338.84;4425088;32;20082;-79
2022/10/03 07:24:33;;;;;;;4.43;1.87;;;;;;;15.78;69.42;98345.34;4423426;32;20098;-79
2022/10/03 07:27:04;;;;;;;7.30;1.80;;;;;;;16.30;67.64;98344.00;4423468;32;20455;-79
2022/10/03 07:29:34;;;;;;;3.60;1.58;;;;;;;16.89;65.81;98353.31;4422728;32;20093;-79
2022/10/03 07:32:17;;;;;;;3.40;1.80;;;;;;;15.42;69.62;98350.06;4423686;32;20113;-79
2022/10/03 07:35:21;;;;;;;4.05;1.67;;;;;;;16.36;66.21;98354.84;4422356;32;20120;-79
2022/10/03 07:41:42;;;;;;;5.60;1.60;;;;;;;17.21;63.74;98366.88;4424175;32;20126;-79
2022/10/03 07:44:34;;;;;;;7.05;2.05;;;;;;;17.17;61.77;98359.38;4423785;32;20074;-79
2022/10/03 07:47:20;;;;;;;2.40;1.05;;;;;;;17.54;61.32;98357.81;4423691;32;20117;-78
2022/10/03 07:50:16;;;;;;;6.57;1.85;;;;;;;17.84;59.18;98361.00;4425203;32;20505;-79
2022/10/03 07:53:00;;;;;;;6.93;1.50;;;;;;;18.17;59.36;98368.31;4425047;32;20085;-79
2022/10/03 07:55:29;;;;;;;6.62;1.73;;;;;;;16.95;61.77;98359.91;4423713;32;20082;-79
2022/10/03 07:58:12;;;;;;;8.75;1.70;;;;;;;16.36;64.83;98367.03;4423808;32;20102;-79
2022/10/03 08:00:57;;;;;;;6.87;1.60;;;;;;;17.20;61.21;98373.03;4424857;32;20373;-79
2022/10/03 08:03:46;;;;;;;4.45;1.50;;;;;;;17.39;59.52;98353.59;4425080;32;20100;-79
2022/10/03 08:06:42;;;;;;;6.28;1.60;;;;;;;17.47;60.59;98362.59;4423759;32;20475;-81
2022/10/03 08:09:46;;;;;;;6.30;1.60;;;;;;;17.16;58.32;98353.34;4423648;32;20160;-81
2022/10/03 08:12:34;;;;;;;4.22;1.60;;;;;;;17.59;59.74;98360.97;4425034;32;20085;-79
2022/10/03 08:15:28;;;;;;;4.72;1.50;;;;;;;16.64;63.30;98346.19;4424446;32;20104;-79
2022/10/03 08:18:18;;;;;;;7.95;1.58;;;;;;;17.92;56.92;98357.91;4423644;32;20085;-79
2022/10/03 08:20:48;;;;;;;5.25;1.50;;;;;;;18.28;57.51;98353.69;4424934;32;20112;-79
2022/10/03 08:24:04;;;;;;;4.07;1.40;;;;;;;17.93;57.87;98356.94;4424517;32;20369;-79
2022/10/03 08:26:54;;;;;;;6.47;1.70;;;;;;;17.99;57.68;98369.59;4423614;32;20085;-79
2022/10/03 08:29:36;;;;;;;6.00;1.30;;;;;;;18.21;55.57;98361.97;4424436;32;20104;-79
2022/10/03 08:32:32;;;;;;;5.57;1.70;;;;;;;16.92;60.24;98367.94;4424747;32;20093;-79
2022/10/03 08:35:16;;;;;;;5.97;1.40;;;;;;;17.53;57.58;98377.84;4409521;32;20116;-79
2022/10/03 08:38:11;;;;;;;5.53;1.50;;;;;;;16.21;59.90;98376.63;4423478;32;20107;-79
2022/10/03 08:40:44;;;;;;;2.87;1.35;;;;;;;17.06;60.48;98388.75;4423574;32;20082;-79
2022/10/03 08:43:35;;;;;;;4.60;1.00;;;;;;;17.64;57.84;98385.78;4424341;32;20098;-79
2022/10/03 08:46:05;;;;;;;6.75;1.50;;;;;;;17.63;58.89;98380.69;4424388;32;20171;-81
2022/10/03 08:48:41;;;;;;;4.50;1.37;;;;;;;17.33;58.48;98375.69;4424598;32;20101;-78
2022/10/03 08:51:46;;;;;;;7.50;1.42;;;;;;;18.30;55.82;98396.25;4424188;32;20074;-78
2022/10/03 08:54:39;;;;;;;5.35;1.05;;;;;;;17.74;56.83;98406.94;4424230;32;20098;-79
2022/10/03 08:57:33;;;;;;;5.75;1.50;;;;;;;16.53;60.34;98395.50;4424540;32;20089;-78
2022/10/03 09:00:20;;;;;;;7.40;2.55;;;;;;;16.45;61.69;98418.56;4426421;32;20090;-79
2022/10/03 09:03:12;;;;;;;4.12;1.35;;;;;;;17.09;58.02;98408.56;4426321;32;20086;-78
2022/10/03 09:06:23;;;;;;;6.25;1.20;;;;;;;16.51;60.07;98380.91;4425832;32;20117;-79
2022/10/03 09:09:09;;;;;;;4.68;1.40;;;;;;;16.09;62.82;98406.84;4425220;32;20117;-78
2022/10/03 09:11:45;;;;;;;6.43;1.40;;;;;;;17.46;59.12;98407.06;4424898;32;20104;-79
2022/10/03 09:14:18;;;;;;;6.60;1.30;;;;;;;17.14;60.07;98422.16;4425046;32;20090;-78
2022/10/03 09:16:57;;;;;;;7.25;1.80;;;;;;;16.86;59.49;98417.84;4426174;32;20102;-78
2022/10/03 09:20:02;;;;;;;7.10;1.73;;;;;;;16.26;62.11;98415.41;4425942;32;20093;-78
2022/10/03 09:22:58;;;;;;;5.90;1.77;;;;;;;16.34;61.96;98432.25;4426203;32;20082;-78
2022/10/03 09:25:28;;;;;;;4.90;1.30;;;;;;;16.31;61.90;98440.25;4424603;32;20431;-79
2022/10/03 09:28:36;;;;;;;4.07;1.20;;;;;;;16.78;61.94;98426.13;4426190;32;20102;-79
2022/10/03 09:31:22;;;;;;;4.72;1.37;;;;;;;16.71;62.44;98428.28;4424998;32;20117;-79
2022/10/03 09:34:07;;;;;;;5.78;1.58;;;;;;;16.41;65.01;98432.72;4429240;32;20077;-79
2022/10/03 09:37:16;;;;;;;5.82;1.50;;;;;;;17.08;61.77;98435.56;4441224;32;20150;-79
2022/10/03 09:39:46;;;;;;;4.60;1.10;;;;;;;17.13;63.36;98423.09;4427384;32;20125;-78
2022/10/03 09:42:50;;;;;;;3.72;1.30;;;;;;;17.25;63.77;98427.53;4441436;32;20097;-78
2022/10/03 09:45:51;;;;;;;4.18;1.42;;;;;;;18.06;59.63;98417.84;4440942;32;20093;-79
2022/10/03 09:48:34;;;;;;;4.07;1.37;;;;;;;18.02;58.81;98403.31;4441308;32;20077;-76
2022/10/03 09:51:08;;;;;;;5.97;1.30;;;;;;;18.98;55.99;98406.28;4427575;32;20714;-79
2022/10/03 09:54:05;;;;;;;3.90;1.15;;;;;;;18.75;56.76;98416.59;4441120;32;20151;-79
2022/10/03 09:56:51;;;;;;;3.10;0.98;;;;;;;18.93;55.71;98406.63;4427335;32;20111;-80
2022/10/03 09:59:42;;;;;;;4.07;1.27;;;;;;;18.92;54.94;98417.16;4441051;32;20076;-81
2022/10/03 10:02:17;;;;;;;5.82;1.17;;;;;;;18.89;53.68;98407.78;4441328;32;20542;-79
2022/10/03 10:04:50;;;;;;;7.90;1.10;;;;;;;18.01;55.83;98417.31;4427395;32;20113;-79
2022/10/03 10:08:05;;;;;;;7.37;1.15;;;;;;;17.42;56.67;98422.03;4440876;32;20104;-79
2022/10/03 10:10:46;;;;;;;5.35;1.50;;;;;;;16.91;58.99;98411.41;4431014;32;20073;-78
2022/10/03 10:13:45;;;;;;;3.60;1.20;;;;;;;17.42;57.93;98416.84;4441010;32;20085;-78
2022/10/03 10:16:52;;;;;;;3.28;1.08;;;;;;;17.12;59.33;98413.56;4437433;32;20093;-79
2022/10/03 10:19:50;;;;;;;5.37;1.17;;;;;;;17.95;55.67;98414.28;4441082;32;20085;-79
2022/10/03 10:22:41;;;;;;;4.18;1.00;;;;;;;17.75;55.29;98420.81;4440858;32;20269;-79
2022/10/03 10:25:41;;;;;;;2.87;1.10;;;;;;;17.80;55.11;98419.59;4440937;32;20116;-81
2022/10/03 10:28:26;;;;;;;3.50;1.02;;;;;;;18.11;54.46;98421.00;4440837;32;20089;-78
2022/10/03 10:31:24;;;;;;;4.50;1.08;;;;;;;17.50;54.90;98409.34;4441054;32;20101;-79
2022/10/03 10:34:22;;;;;;;5.93;1.05;;;;;;;18.30;54.27;98424.97;4427062;32;20459;-79
2022/10/03 10:36:58;;;;;;;4.32;1.10;;;;;;;17.37;56.37;98410.25;4440651;32;20109;-79
2022/10/03 10:39:31;;;;;;;3.78;0.95;;;;;;;17.67;53.77;98404.81;4441166;32;20089;-79
2022/10/03 10:42:27;;;;;;;9.05;1.10;;;;;;;17.37;55.88;98402.44;4440648;32;20089;-79
2022/10/03 10:45:23;;;;;;;5.47;1.20;;;;;;;17.63;55.67;98404.16;4440734;32;20109;-80
2022/10/03 10:48:32;;;;;;;3.72;0.90;;;;;;;17.56;55.52;98406.34;4439678;32;20105;-80
2022/10/03 10:51:27;;;;;;;3.15;1.00;;;;;;;17.77;54.58;98390.25;4427224;32;20113;-80
2022/10/03 10:54:40;;;;;;;5.07;1.27;;;;;;;17.47;53.33;98396.50;4441022;32;20089;-80
2022/10/03 10:57:39;;;;;;;2.30;0.80;;;;;;;17.54;55.35;98383.88;4426654;32;20131;-81
2022/10/03 11:00:10;;;;;;;3.70;1.00;;;;;;;18.11;51.66;98389.66;4440839;32;20120;-80
2022/10/03 11:03:11;;;;;;;3.47;0.70;;;;;;;18.16;53.06;98381.50;4426741;32;20121;-80
2022/10/03 11:06:13;;;;;;;4.75;1.10;;;;;;;18.86;51.49;98386.25;4440621;32;20104;-80
2022/10/03 11:08:48;;;;;;;4.55;0.90;;;;;;;19.50;49.88;98384.19;4429954;32;20072;-79
2022/10/03 11:11:50;;;;;;;1.35;0.65;;;;;;;19.03;48.99;98380.63;4440601;32;20102;-79
2022/10/03 11:14:44;;;;;;;2.12;0.73;;;;;;;19.55;48.27;98363.75;4440652;32;20219;-79
2022/10/03 11:17:40;;;;;;;4.22;0.68;;;;;;;19.00;48.90;98366.00;4426479;32;20447;-79
2022/10/03 11:20:16;;;;;;;3.85;1.23;;;;;;;18.25;49.86;98359.12;4440686;32;20436;-80
2022/10/03 11:23:21;;;;;;;3.80;1.10;;;;;;;18.23;49.82;98367.09;4440726;32;20101;-79
2022/10/03 11:26:12;;;;;;;3.03;1.17;;;;;;;18.46;50.43;98383.78;4416761;32;20090;-80
2022/10/03 11:29:04;;;;;;;2.78;0.70;;;;;;;17.77;50.04;98383.25;4440690;32;20080;-79
2022/10/03 11:31:52;;;;;;;3.60;0.77;;;;;;;18.04;50.44;98395.38;4440225;32;20085;-79
2022/10/03 11:34:22;;;;;;;5.25;0.90;;;;;;;17.74;50.44;98378.22;4440256;32;20152;-80
2022/10/03 11:37:18;;;;;;;6.22;0.90;;;;;;;17.08;53.51;98381.66;4440258;32;20465;-80
2022/10/03 11:39:51;;;;;;;3.50;0.77;;;;;;;17.20;52.18;98365.22;4426435;32;20089;-80
2022/10/03 11:42:38;;;;;;;1.95;0.70;;;;;;;17.22;52.53;98367.72;4440468;32;20436;-79
2022/10/03 11:45:16;;;;;;;1.60;0.63;;;;;;;16.87;54.09;98372.59;4440163;32;20105;-80
2022/10/03 11:48:01;;;;;;;3.83;0.73;;;;;;;17.11;53.44;98372.78;4440536;32;20196;-80
2022/10/03 11:50:56;;;;;;;4.75;0.93;;;;;;;16.44;56.26;98388.25;4426694;32;20089;-80
2022/10/03 11:53:38;;;;;;;3.17;0.60;;;;;;;17.13;52.51;98381.38;4426504;32;20107;-80
2022/10/03 11:56:17;;;;;;;2.15;0.68;;;;;;;17.06;50.86;98381.75;4426233;32;20109;-79
2022/10/03 11:58:52;;;;;;;2.95;0.73;;;;;;;17.34;49.86;98377.37;4440232;32;20101;-79
2022/10/03 12:01:32;;;;;;;1.48;0.60;;;;;;;17.22;50.92;98375.56;4426692;32;20085;-79
2022/10/03 12:04:41;;;;;;;5.10;0.70;;;;;;;18.48;51.53;98394.94;4440930;32;20100;-80
2022/10/03 12:10:37;;;;;;;2.78;0.60;;;;;;;19.91;45.42;98389.00;4433972;32;20100;-82
2022/10/03 12:13:13;;;;;;;3.40;0.70;;;;;;;19.92;43.26;98388.06;4441462;32;20086;-82
2022/10/03 12:15:53;;;;;;;1.00;0.70;;;;;;;20.06;44.25;98385.22;4445412;32;20139;-82
2022/10/03 12:18:41;;;;;;;0.93;0.57;;;;;;;19.66;42.56;98384.75;4437000;32;20511;-81
2022/10/03 12:21:12;;;;;;;4.28;0.62;;;;;;;19.27;45.97;98381.50;4449923;32;20146;-83
2022/10/03 12:24:03;;;;;;;1.83;0.77;;;;;;;18.88;46.21;98366.06;4436324;32;20125;-83
2022/10/03 12:26:42;;;;;;;4.32;1.00;;;;;;;19.03;47.03;98381.50;4450211;32;20084;-82
2022/10/03 12:29:13;;;;;;;7.28;1.10;;;;;;;18.64;46.74;98376.44;4442570;32;20164;-84
2022/10/03 12:32:04;;;;;;;3.65;0.80;;;;;;;18.70;47.86;98376.84;4429210;32;20078;-83
2022/10/03 12:34:39;;;;;;;2.12;0.68;;;;;;;18.58;47.56;98380.31;4447728;32;20104;-83
2022/10/03 12:37:42;;;;;;;3.33;0.70;;;;;;;18.10;47.49;98354.03;4436760;32;20049;-83
2022/10/03 12:40:48;;;;;;;3.45;0.80;;;;;;;18.17;48.30;98373.56;4417340;32;20093;-84
2022/10/03 12:43:18;;;;;;;4.50;1.20;;;;;;;18.21;48.97;98367.19;4383816;32;20121;-83
2022/10/03 12:46:16;;;;;;;5.97;1.30;;;;;;;17.99;48.99;98380.03;4437210;32;20103;-84
2022/10/03 12:49:09;;;;;;;3.42;0.93;;;;;;;18.16;48.91;98384.94;4410426;32;20082;-83
2022/10/03 12:51:46;;;;;;;3.00;0.70;;;;;;;18.00;48.79;98388.72;4441112;32;20093;-83
2022/10/03 12:54:22;;;;;;;3.75;0.85;;;;;;;17.37;50.61;98381.56;4429076;32;20080;-82
2022/10/03 12:57:10;;;;;;;4.12;0.85;;;;;;;18.04;50.22;98398.84;4444806;32;20472;-83
2022/10/03 12:59:41;;;;;;;1.85;0.52;;;;;;;17.49;49.89;98393.81;4445474;32;20107;-83
2022/10/03 13:02:34;;;;;;;3.12;0.80;;;;;;;18.02;49.84;98392.87;4445988;32;20089;-83
2022/10/03 13:05:32;;;;;;;2.53;0.82;;;;;;;18.03;49.16;98386.72;4433508;32;20069;-84
2022/10/03 13:08:18;;;;;;;3.75;0.93;;;;;;;19.39;47.07;98387.59;4453239;32;20073;-83
2022/10/03 13:10:48;;;;;;;4.75;0.70;;;;;;;19.11;45.98;98383.53;4449998;32;20058;-82
2022/10/03 13:13:19;;;;;;;1.37;0.68;;;;;;;18.69;46.40;98385.66;4418112;32;20088;-83
2022/10/03 13:16:28;;;;;;;2.87;0.90;;;;;;;18.16;48.43;98400.59;4450622;32;20168;-83